Rechercher aéroport 
image banner adimage banner adimage banner ad
image banner ad

92PA - Hawkins Field

Situé à Cooperstown, United States

ICAO - 92PA, IATA -

Données fournies par Airmate  

Information générale

Coordonnées: N40°42'15" W79°57'7"
Élévation : 1150 feet MSL.
Variation magnétique : -08° East
Voir autres Aéroports à Pennsylvania

Données opérationnelles

Special qualification required
Heure actuelle UTC:
Heure actuelle locale:
METAR: KBTP 152156Z AUTO 30008KT 270V340 10SM CLR 22/11 A2994 RMK AO2 SLP139 T02170111 $
Voir NOTAMs / SUP AIP / TFR affectant cet aéroport [VIEW]
Fréquences de communication: [VIEW]

Pistes:

Identifiant RWYQFULongueur (ft)Largeur (ft)SurfaceLDA (ft)
171285100GRASS
351285100GRASS

Coordonnées de l'aéroport

Adresse: Cooperstown United States

Vue satellite de 92PA